Lapis Arrow — C6VH5 — position and weather

sailwx.info

Track history (hours):
 
Tides and Currents Weather Stations Pressure Air Temp Water Temp Dewpoint Dewpoint Depression Visibility Wind Speed Wind Dir Waves Ship Positions

Lapis Arrow

Last reported at 2016-Feb-06 11:17 UTC. Time now 2016-Feb-10 00:41 UTC.
Position N 34°41' E 139°49'.

Length 176 m; draft 7.3 m.

Type: Cargo ship. MMSI: 308800800.

Date/timePositionNaut miles runAvg speedWind from/ knotsBaromVisibWave heightAir tempDewpointWater temp
2016-Feb-06 11:17N 34°41' E 139°49'1215.4
2016-Feb-06 10:32N 34°52' E 139°44'1515.1
2016-Feb-06 09:34N 35°07' E 139°44'1212.1
2016-Feb-06 08:33N 35°19' E 139°43'8 8.0
2016-Feb-06 07:31N 35°27' E 139°41'0 0.0
2016-Feb-06 06:26N 35°27' E 139°41'0 0.0
2016-Feb-06 05:29N 35°27' E 139°41'0 0.0
2016-Feb-06 04:33N 35°27' E 139°41'0 0.0
2016-Feb-06 03:30N 35°27' E 139°41'0 0.0
2016-Feb-06 02:28N 35°27' E 139°41'0 0.0
2016-Feb-06 01:30N 35°27' E 139°41'0 0.0
2016-Feb-06 00:33N 35°27' E 139°41'0 0.0
2016-Feb-05 23:31N 35°27' E 139°41'0 0.0
2016-Feb-05 22:34N 35°27' E 139°41'0 0.0
2016-Feb-05 21:32N 35°27' E 139°41'0 0.0
2016-Feb-05 20:27N 35°27' E 139°41'0 0.0
2016-Feb-05 19:32N 35°27' E 139°41'0 0.0
2016-Feb-05 18:26N 35°27' E 139°41'0 0.0
2016-Feb-05 17:32N 35°27' E 139°41'0 0.0
2016-Feb-05 16:26N 35°27' E 139°41'0 0.0
2016-Feb-05 15:29N 35°27' E 139°41'0 0.0
2016-Feb-05 14:31N 35°27' E 139°41'0 0.0
2016-Feb-05 13:32N 35°27' E 139°41'0 0.0
2016-Feb-05 12:27N 35°27' E 139°41'0 0.0
2016-Feb-05 11:30N 35°27' E 139°41'0 0.0
2016-Feb-05 10:33N 35°27' E 139°41'2 1.5
2016-Feb-05 09:33N 35°26' E 139°43'2 1.5
2016-Feb-05 08:34N 35°26' E 139°44'8 8.2
2016-Feb-05 07:33N 35°18' E 139°45'1010.2
2016-Feb-05 06:34N 35°07' E 139°46'1110.8
2016-Feb-05 05:31N 34°56' E 139°43'1714.1
2016-Feb-05 04:20N 34°49' E 140°01'1215.0
2016-Feb-05 03:33N 34°45' E 140°15'266 6.7
2016-Feb-03 11:32N 33°56' E 134°58'1515.3
2016-Feb-03 10:33N 34°11' E 134°57'1514.4
2016-Feb-03 09:33N 34°26' E 135°01'1010.4
2016-Feb-03 08:33N 34°36' E 135°02'211 5.2
2016-Feb-01 16:21N 34°01' E 130°51'  
Track history (hours):
 
Tides and Currents Weather Stations Pressure Air Temp Water Temp Dewpoint Dewpoint Depression Visibility Wind Speed Wind Dir Waves Ship Positions

Lapis Arrow

Last reported at 2016-Feb-06 11:17 UTC. Time now 2016-Feb-10 00:41 UTC.
Position N 34°41' E 139°49'.

Length 176 m; draft 7.3 m.

Type: Cargo ship. MMSI: 308800800.

Date/timePositionNaut miles runAvg speedWind from/ knotsBaromVisibWave heightAir tempDewpointWater temp
2016-Feb-06 11:17N 34°41' E 139°49'1215.4
2016-Feb-06 10:32N 34°52' E 139°44'1515.1
2016-Feb-06 09:34N 35°07' E 139°44'1212.1
2016-Feb-06 08:33N 35°19' E 139°43'8 8.0
2016-Feb-06 07:31N 35°27' E 139°41'0 0.0
2016-Feb-06 06:26N 35°27' E 139°41'0 0.0
2016-Feb-06 05:29N 35°27' E 139°41'0 0.0
2016-Feb-06 04:33N 35°27' E 139°41'0 0.0
2016-Feb-06 03:30N 35°27' E 139°41'0 0.0
2016-Feb-06 02:28N 35°27' E 139°41'0 0.0
2016-Feb-06 01:30N 35°27' E 139°41'0 0.0
2016-Feb-06 00:33N 35°27' E 139°41'0 0.0
2016-Feb-05 23:31N 35°27' E 139°41'0 0.0
2016-Feb-05 22:34N 35°27' E 139°41'0 0.0
2016-Feb-05 21:32N 35°27' E 139°41'0 0.0
2016-Feb-05 20:27N 35°27' E 139°41'0 0.0
2016-Feb-05 19:32N 35°27' E 139°41'0 0.0
2016-Feb-05 18:26N 35°27' E 139°41'0 0.0
2016-Feb-05 17:32N 35°27' E 139°41'0 0.0
2016-Feb-05 16:26N 35°27' E 139°41'0 0.0
2016-Feb-05 15:29N 35°27' E 139°41'0 0.0
2016-Feb-05 14:31N 35°27' E 139°41'0 0.0
2016-Feb-05 13:32N 35°27' E 139°41'0 0.0
2016-Feb-05 12:27N 35°27' E 139°41'0 0.0
2016-Feb-05 11:30N 35°27' E 139°41'0 0.0
2016-Feb-05 10:33N 35°27' E 139°41'2 1.5
2016-Feb-05 09:33N 35°26' E 139°43'2 1.5
2016-Feb-05 08:34N 35°26' E 139°44'8 8.2
2016-Feb-05 07:33N 35°18' E 139°45'1010.2
2016-Feb-05 06:34N 35°07' E 139°46'1110.8
2016-Feb-05 05:31N 34°56' E 139°43'1714.1
2016-Feb-05 04:20N 34°49' E 140°01'1215.0
2016-Feb-05 03:33N 34°45' E 140°15'266 6.7
2016-Feb-03 11:32N 33°56' E 134°58'1515.3
2016-Feb-03 10:33N 34°11' E 134°57'1514.4
2016-Feb-03 09:33N 34°26' E 135°01'1010.4
2016-Feb-03 08:33N 34°36' E 135°02'211 5.2
2016-Feb-01 16:21N 34°01' E 130°51'  

Dump ship's entire track history